Portada
METAR-TAF:

METAR-TAF

Aeropuertos :

Beja, Portugal

Base Aérea de Beja

latitud: 38-04-40N, longitud: 007-55-57W, altitud: 193 m

Observación

El informe se hizo hace 26 minutos, a las 18:00 UTC
Viento 15 kt del oeste-noroeste
Temperatura 26°C
Humedad 42%
Presión 1018 hPa
Visibilidad 10 km o más
sin nubes por debajo de 1500 m y sin presencia de cumulonimbus.

METAR: LPBJ 231800Z 30015KT CAVOK 26/12 Q1018

Hora: 19:26 (18:26 UTC)

Pronóstico

El informe se hizo hace 1 hora y 15 minutos, a las 17:11 UTC
Pronóstico válido del 23 a las 18 UTC al 24 a las 18 UTC
Viento 8 kt del oeste-noroeste
Visibilidad 10 km o más
sin nubes por debajo de 1500 m y sin presencia de cumulonimbus.
Probabilidad 30%
del 24 a las 05 UTC al 24 a las 08 UTC
Visibilidad: 2000 m
Cielo nuboso a una altura de 200 ft
niebla en bancos

TAF: LPBJ 231711Z 2318/2418 30008KT CAVOK PROB30 2405/2408 2000 BCFG BKN002

Observaciones y pronósticos meteorológicos de más de 4000 aeropuertos (mensajes METAR y TAF).

Los puntos amarillos y rojos representan las estaciones disponibles.

Ponga el ratón en el punto deseado para ver el nombre de la estación.

Haga clic para ver las observaciones y los pronósticos meteorológicos.

Para cambiar el mapa : haga clic en los botones verdes con una cruz de color negro para hacer un zoom, en el botón verde con un guión para alejar o en las flechas verdes para mapas adyacentes.


METAR-TAF: